sensor_id;sensor_type;location;lat;lon;timestamp;P1;durP1;ratioP1;P2;durP2;ratioP2
39314;SDS011;28703;44.412;11.918;2023-08-06T00:00:38;289.05;;;267.05;;
39314;SDS011;28703;44.412;11.918;2023-08-06T00:03:04;481.75;;;441.80;;
39314;SDS011;28703;44.412;11.918;2023-08-06T00:05:31;423.88;;;388.77;;
39314;SDS011;28703;44.412;11.918;2023-08-06T00:07:56;433.42;;;397.50;;
39314;SDS011;28703;44.412;11.918;2023-08-06T00:10:22;437.52;;;401.30;;
39314;SDS011;28703;44.412;11.918;2023-08-06T00:12:48;439.48;;;403.17;;
39314;SDS011;28703;44.412;11.918;2023-08-06T00:15:14;445.15;;;407.85;;
39314;SDS011;28703;44.412;11.918;2023-08-06T00:17:40;376.75;;;345.98;;
39314;SDS011;28703;44.412;11.918;2023-08-06T00:20:06;449.38;;;412.00;;
39314;SDS011;28703;44.412;11.918;2023-08-06T00:22:33;450.63;;;413.02;;
39314;SDS011;28703;44.412;11.918;2023-08-06T00:25:02;431.42;;;395.35;;
39314;SDS011;28703;44.412;11.918;2023-08-06T00:27:28;454.58;;;417.20;;
39314;SDS011;28703;44.412;11.918;2023-08-06T00:29:54;453.23;;;415.55;;
39314;SDS011;28703;44.412;11.918;2023-08-06T00:32:21;471.05;;;431.65;;
39314;SDS011;28703;44.412;11.918;2023-08-06T00:34:47;477.48;;;438.23;;
39314;SDS011;28703;44.412;11.918;2023-08-06T00:37:16;462.92;;;424.73;;
39314;SDS011;28703;44.412;11.918;2023-08-06T00:39:42;455.23;;;417.60;;
39314;SDS011;28703;44.412;11.918;2023-08-06T00:42:09;445.33;;;408.38;;
39314;SDS011;28703;44.412;11.918;2023-08-06T00:44:35;435.20;;;398.65;;
39314;SDS011;28703;44.412;11.918;2023-08-06T00:47:01;444.02;;;406.75;;
39314;SDS011;28703;44.412;11.918;2023-08-06T00:49:28;419.67;;;384.45;;
39314;SDS011;28703;44.412;11.918;2023-08-06T00:51:55;424.70;;;389.23;;
39314;SDS011;28703;44.412;11.918;2023-08-06T00:54:22;427.23;;;391.75;;
39314;SDS011;28703;44.412;11.918;2023-08-06T00:56:48;420.50;;;385.83;;
39314;SDS011;28703;44.412;11.918;2023-08-06T00:59:15;417.33;;;382.65;;
39314;SDS011;28703;44.412;11.918;2023-08-06T01:01:40;424.33;;;389.42;;
39314;SDS011;28703;44.412;11.918;2023-08-06T01:04:06;417.77;;;383.30;;
39314;SDS011;28703;44.412;11.918;2023-08-06T01:09:17;367.33;;;337.92;;
39314;SDS011;28703;44.412;11.918;2023-08-06T01:14:58;302.38;;;279.23;;
39314;SDS011;28703;44.412;11.918;2023-08-06T01:17:30;522.47;;;481.23;;
39314;SDS011;28703;44.412;11.918;2023-08-06T01:19:56;295.00;;;272.38;;
39314;SDS011;28703;44.412;11.918;2023-08-06T01:22:22;560.97;;;515.35;;
39314;SDS011;28703;44.412;11.918;2023-08-06T01:24:48;490.80;;;451.77;;
39314;SDS011;28703;44.412;11.918;2023-08-06T01:27:30;494.45;;;454.13;;
39314;SDS011;28703;44.412;11.918;2023-08-06T01:30:08;320.80;;;296.30;;
39314;SDS011;28703;44.412;11.918;2023-08-06T01:32:40;542.95;;;498.95;;
39314;SDS011;28703;44.412;11.918;2023-08-06T01:35:08;459.77;;;422.38;;
39314;SDS011;28703;44.412;11.918;2023-08-06T01:37:36;538.25;;;494.63;;
39314;SDS011;28703;44.412;11.918;2023-08-06T01:40:10;479.50;;;441.23;;
39314;SDS011;28703;44.412;11.918;2023-08-06T01:42:39;573.70;;;528.28;;
39314;SDS011;28703;44.412;11.918;2023-08-06T01:45:07;404.27;;;372.50;;
39314;SDS011;28703;44.412;11.918;2023-08-06T01:47:34;555.63;;;510.58;;
39314;SDS011;28703;44.412;11.918;2023-08-06T01:50:01;502.13;;;461.73;;
39314;SDS011;28703;44.412;11.918;2023-08-06T01:52:27;570.78;;;525.78;;
39314;SDS011;28703;44.412;11.918;2023-08-06T01:54:54;324.83;;;300.08;;
39314;SDS011;28703;44.412;11.918;2023-08-06T01:57:20;543.05;;;498.40;;
39314;SDS011;28703;44.412;11.918;2023-08-06T01:59:46;499.88;;;460.13;;
39314;SDS011;28703;44.412;11.918;2023-08-06T02:02:12;564.95;;;519.17;;
39314;SDS011;28703;44.412;11.918;2023-08-06T02:04:38;473.60;;;436.48;;
39314;SDS011;28703;44.412;11.918;2023-08-06T02:07:04;575.50;;;529.67;;
39314;SDS011;28703;44.412;11.918;2023-08-06T02:09:30;478.77;;;441.10;;
39314;SDS011;28703;44.412;11.918;2023-08-06T02:11:56;584.70;;;538.03;;
39314;SDS011;28703;44.412;11.918;2023-08-06T02:14:22;557.58;;;512.90;;
39314;SDS011;28703;44.412;11.918;2023-08-06T02:16:48;528.75;;;487.83;;
39314;SDS011;28703;44.412;11.918;2023-08-06T02:19:14;613.63;;;565.97;;
39314;SDS011;28703;44.412;11.918;2023-08-06T02:21:40;496.90;;;457.48;;
39314;SDS011;28703;44.412;11.918;2023-08-06T02:24:06;571.55;;;526.38;;
39314;SDS011;28703;44.412;11.918;2023-08-06T02:26:32;556.55;;;512.60;;
39314;SDS011;28703;44.412;11.918;2023-08-06T02:28:58;495.13;;;456.75;;
39314;SDS011;28703;44.412;11.918;2023-08-06T02:31:24;591.03;;;544.20;;
39314;SDS011;28703;44.412;11.918;2023-08-06T02:33:49;525.35;;;483.25;;
39314;SDS011;28703;44.412;11.918;2023-08-06T02:36:16;588.13;;;540.78;;
39314;SDS011;28703;44.412;11.918;2023-08-06T02:38:42;592.63;;;545.63;;
39314;SDS011;28703;44.412;11.918;2023-08-06T02:41:08;588.38;;;541.08;;
39314;SDS011;28703;44.412;11.918;2023-08-06T02:43:34;577.47;;;531.40;;
39314;SDS011;28703;44.412;11.918;2023-08-06T02:46:00;511.52;;;469.75;;
39314;SDS011;28703;44.412;11.918;2023-08-06T02:48:27;531.50;;;487.73;;
39314;SDS011;28703;44.412;11.918;2023-08-06T02:50:53;466.85;;;428.00;;
39314;SDS011;28703;44.412;11.918;2023-08-06T02:53:22;565.95;;;519.78;;
39314;SDS011;28703;44.412;11.918;2023-08-06T02:55:49;554.53;;;509.58;;
39314;SDS011;28703;44.412;11.918;2023-08-06T02:58:19;602.40;;;553.75;;
39314;SDS011;28703;44.412;11.918;2023-08-06T03:01:05;539.17;;;494.38;;
39314;SDS011;28703;44.412;11.918;2023-08-06T03:03:40;528.35;;;484.08;;
39314;SDS011;28703;44.412;11.918;2023-08-06T03:06:07;515.78;;;471.70;;
39314;SDS011;28703;44.412;11.918;2023-08-06T03:08:43;510.38;;;466.23;;
39314;SDS011;28703;44.412;11.918;2023-08-06T03:11:09;525.47;;;479.92;;
39314;SDS011;28703;44.412;11.918;2023-08-06T03:13:35;533.22;;;487.02;;
39314;SDS011;28703;44.412;11.918;2023-08-06T03:16:01;530.42;;;484.77;;
39314;SDS011;28703;44.412;11.918;2023-08-06T03:18:29;534.08;;;487.30;;
39314;SDS011;28703;44.412;11.918;2023-08-06T03:20:58;541.50;;;494.40;;
39314;SDS011;28703;44.412;11.918;2023-08-06T03:23:27;544.95;;;497.63;;
39314;SDS011;28703;44.412;11.918;2023-08-06T03:25:53;596.75;;;545.58;;
39314;SDS011;28703;44.412;11.918;2023-08-06T03:28:19;611.15;;;560.55;;
39314;SDS011;28703;44.412;11.918;2023-08-06T03:30:46;522.00;;;476.88;;
39314;SDS011;28703;44.412;11.918;2023-08-06T03:33:12;491.80;;;449.27;;
39314;SDS011;28703;44.412;11.918;2023-08-06T03:35:39;518.78;;;475.00;;
39314;SDS011;28703;44.412;11.918;2023-08-06T03:38:06;526.90;;;483.65;;
39314;SDS011;28703;44.412;11.918;2023-08-06T03:40:31;592.70;;;546.05;;
39314;SDS011;28703;44.412;11.918;2023-08-06T03:42:59;510.48;;;470.13;;
39314;SDS011;28703;44.412;11.918;2023-08-06T03:45:25;493.98;;;455.30;;
39314;SDS011;28703;44.412;11.918;2023-08-06T03:47:51;404.13;;;371.55;;
39314;SDS011;28703;44.412;11.918;2023-08-06T03:50:17;421.17;;;387.27;;
39314;SDS011;28703;44.412;11.918;2023-08-06T03:52:43;485.63;;;447.42;;
39314;SDS011;28703;44.412;11.918;2023-08-06T03:55:10;516.28;;;475.58;;
39314;SDS011;28703;44.412;11.918;2023-08-06T03:57:36;484.33;;;444.52;;
39314;SDS011;28703;44.412;11.918;2023-08-06T04:00:02;492.35;;;451.63;;
39314;SDS011;28703;44.412;11.918;2023-08-06T04:02:40;463.75;;;425.40;;
39314;SDS011;28703;44.412;11.918;2023-08-06T04:05:06;434.48;;;398.48;;
39314;SDS011;28703;44.412;11.918;2023-08-06T04:07:32;446.23;;;409.08;;
39314;SDS011;28703;44.412;11.918;2023-08-06T04:09:59;425.92;;;390.50;;
39314;SDS011;28703;44.412;11.918;2023-08-06T04:12:26;450.90;;;413.48;;
39314;SDS011;28703;44.412;11.918;2023-08-06T04:14:53;451.65;;;414.58;;
39314;SDS011;28703;44.412;11.918;2023-08-06T04:17:20;450.83;;;413.95;;
39314;SDS011;28703;44.412;11.918;2023-08-06T04:19:50;438.67;;;401.75;;
39314;SDS011;28703;44.412;11.918;2023-08-06T04:22:17;449.90;;;412.35;;
39314;SDS011;28703;44.412;11.918;2023-08-06T04:24:43;440.73;;;403.92;;
39314;SDS011;28703;44.412;11.918;2023-08-06T04:27:10;429.67;;;393.85;;
39314;SDS011;28703;44.412;11.918;2023-08-06T04:29:37;385.35;;;352.67;;
39314;SDS011;28703;44.412;11.918;2023-08-06T04:32:05;475.48;;;437.15;;
39314;SDS011;28703;44.412;11.918;2023-08-06T04:34:32;445.17;;;408.55;;
39314;SDS011;28703;44.412;11.918;2023-08-06T04:36:59;443.65;;;407.00;;
39314;SDS011;28703;44.412;11.918;2023-08-06T04:39:25;375.48;;;343.90;;
39314;SDS011;28703;44.412;11.918;2023-08-06T04:41:51;474.83;;;435.20;;
39314;SDS011;28703;44.412;11.918;2023-08-06T04:44:17;355.80;;;326.58;;
39314;SDS011;28703;44.412;11.918;2023-08-06T04:46:43;451.92;;;414.20;;
39314;SDS011;28703;44.412;11.918;2023-08-06T04:49:09;339.45;;;311.90;;
39314;SDS011;28703;44.412;11.918;2023-08-06T04:51:35;434.48;;;398.77;;
39314;SDS011;28703;44.412;11.918;2023-08-06T04:54:01;411.45;;;378.00;;
39314;SDS011;28703;44.412;11.918;2023-08-06T04:56:26;382.17;;;350.42;;
39314;SDS011;28703;44.412;11.918;2023-08-06T04:58:52;428.92;;;394.00;;
39314;SDS011;28703;44.412;11.918;2023-08-06T05:01:18;410.25;;;377.17;;
39314;SDS011;28703;44.412;11.918;2023-08-06T05:03:44;323.83;;;297.50;;
39314;SDS011;28703;44.412;11.918;2023-08-06T05:06:10;422.33;;;387.80;;
39314;SDS011;28703;44.412;11.918;2023-08-06T05:08:36;349.27;;;320.45;;
39314;SDS011;28703;44.412;11.918;2023-08-06T05:11:02;414.90;;;381.00;;
39314;SDS011;28703;44.412;11.918;2023-08-06T05:13:28;363.83;;;333.30;;
39314;SDS011;28703;44.412;11.918;2023-08-06T05:15:54;433.27;;;397.27;;
39314;SDS011;28703;44.412;11.918;2023-08-06T05:18:20;415.55;;;382.08;;
39314;SDS011;28703;44.412;11.918;2023-08-06T05:20:46;423.52;;;389.35;;
39314;SDS011;28703;44.412;11.918;2023-08-06T05:23:12;357.67;;;328.55;;
39314;SDS011;28703;44.412;11.918;2023-08-06T05:25:38;436.95;;;401.70;;
39314;SDS011;28703;44.412;11.918;2023-08-06T05:28:04;369.10;;;338.20;;
39314;SDS011;28703;44.412;11.918;2023-08-06T05:30:30;419.52;;;385.80;;
39314;SDS011;28703;44.412;11.918;2023-08-06T05:32:56;369.95;;;339.58;;
39314;SDS011;28703;44.412;11.918;2023-08-06T05:35:22;418.02;;;384.00;;
39314;SDS011;28703;44.412;11.918;2023-08-06T05:37:49;387.27;;;355.00;;
39314;SDS011;28703;44.412;11.918;2023-08-06T05:40:16;420.75;;;386.48;;
39314;SDS011;28703;44.412;11.918;2023-08-06T05:42:41;362.42;;;332.35;;
39314;SDS011;28703;44.412;11.918;2023-08-06T05:45:08;425.50;;;390.75;;
39314;SDS011;28703;44.412;11.918;2023-08-06T05:47:35;348.45;;;319.98;;
39314;SDS011;28703;44.412;11.918;2023-08-06T05:50:00;417.00;;;383.25;;
39314;SDS011;28703;44.412;11.918;2023-08-06T05:52:26;345.42;;;317.08;;
39314;SDS011;28703;44.412;11.918;2023-08-06T05:54:52;423.25;;;388.67;;
39314;SDS011;28703;44.412;11.918;2023-08-06T05:57:20;359.63;;;329.60;;
39314;SDS011;28703;44.412;11.918;2023-08-06T05:59:46;432.58;;;397.33;;
39314;SDS011;28703;44.412;11.918;2023-08-06T06:02:12;345.88;;;318.20;;
39314;SDS011;28703;44.412;11.918;2023-08-06T06:04:37;307.23;;;284.02;;
39314;SDS011;28703;44.412;11.918;2023-08-06T06:07:04;449.17;;;412.60;;
39314;SDS011;28703;44.412;11.918;2023-08-06T06:09:29;330.23;;;304.73;;
39314;SDS011;28703;44.412;11.918;2023-08-06T06:11:55;436.52;;;401.25;;
39314;SDS011;28703;44.412;11.918;2023-08-06T06:14:21;326.73;;;301.60;;
39314;SDS011;28703;44.412;11.918;2023-08-06T06:16:47;448.10;;;411.73;;
39314;SDS011;28703;44.412;11.918;2023-08-06T06:19:13;341.45;;;314.55;;
39314;SDS011;28703;44.412;11.918;2023-08-06T06:21:39;458.70;;;420.55;;
39314;SDS011;28703;44.412;11.918;2023-08-06T06:24:05;341.25;;;314.33;;
39314;SDS011;28703;44.412;11.918;2023-08-06T06:26:32;544.65;;;498.40;;
39314;SDS011;28703;44.412;11.918;2023-08-06T06:28:58;335.98;;;309.77;;
39314;SDS011;28703;44.412;11.918;2023-08-06T06:31:24;412.08;;;376.95;;
39314;SDS011;28703;44.412;11.918;2023-08-06T06:33:50;361.95;;;332.27;;
39314;SDS011;28703;44.412;11.918;2023-08-06T06:36:18;473.90;;;435.25;;
39314;SDS011;28703;44.412;11.918;2023-08-06T06:38:44;350.98;;;323.05;;
39314;SDS011;28703;44.412;11.918;2023-08-06T06:41:10;499.80;;;459.20;;
39314;SDS011;28703;44.412;11.918;2023-08-06T06:43:37;349.90;;;322.77;;
39314;SDS011;28703;44.412;11.918;2023-08-06T06:46:05;481.30;;;441.67;;
39314;SDS011;28703;44.412;11.918;2023-08-06T06:48:32;352.55;;;325.17;;
39314;SDS011;28703;44.412;11.918;2023-08-06T06:50:58;511.02;;;470.08;;
39314;SDS011;28703;44.412;11.918;2023-08-06T06:53:24;372.35;;;343.27;;
39314;SDS011;28703;44.412;11.918;2023-08-06T06:55:56;548.22;;;504.10;;
39314;SDS011;28703;44.412;11.918;2023-08-06T06:58:26;341.58;;;315.70;;
39314;SDS011;28703;44.412;11.918;2023-08-06T07:00:52;435.38;;;400.05;;
39314;SDS011;28703;44.412;11.918;2023-08-06T07:03:19;332.50;;;307.30;;
39314;SDS011;28703;44.412;11.918;2023-08-06T07:05:45;498.85;;;458.67;;
39314;SDS011;28703;44.412;11.918;2023-08-06T07:08:11;321.67;;;298.00;;
39314;SDS011;28703;44.412;11.918;2023-08-06T07:10:37;351.10;;;324.98;;
39314;SDS011;28703;44.412;11.918;2023-08-06T07:13:03;318.63;;;295.13;;
39314;SDS011;28703;44.412;11.918;2023-08-06T07:15:29;603.08;;;555.97;;
39314;SDS011;28703;44.412;11.918;2023-08-06T07:17:55;694.65;;;640.22;;
39314;SDS011;28703;44.412;11.918;2023-08-06T07:20:21;677.70;;;624.10;;
39314;SDS011;28703;44.412;11.918;2023-08-06T07:22:47;683.63;;;629.67;;
39314;SDS011;28703;44.412;11.918;2023-08-06T07:25:13;693.08;;;638.70;;
39314;SDS011;28703;44.412;11.918;2023-08-06T07:27:39;622.17;;;574.83;;
39314;SDS011;28703;44.412;11.918;2023-08-06T07:30:05;660.95;;;610.00;;
39314;SDS011;28703;44.412;11.918;2023-08-06T07:32:31;563.40;;;520.88;;
39314;SDS011;28703;44.412;11.918;2023-08-06T07:34:57;674.88;;;622.28;;
39314;SDS011;28703;44.412;11.918;2023-08-06T07:37:28;560.38;;;517.95;;
39314;SDS011;28703;44.412;11.918;2023-08-06T07:39:58;582.05;;;537.83;;
39314;SDS011;28703;44.412;11.918;2023-08-06T07:42:24;675.00;;;622.97;;
39314;SDS011;28703;44.412;11.918;2023-08-06T07:44:53;688.72;;;634.97;;
39314;SDS011;28703;44.412;11.918;2023-08-06T07:47:20;705.47;;;650.45;;
39314;SDS011;28703;44.412;11.918;2023-08-06T07:49:47;696.05;;;642.13;;
39314;SDS011;28703;44.412;11.918;2023-08-06T07:52:13;705.20;;;650.42;;
39314;SDS011;28703;44.412;11.918;2023-08-06T07:54:39;567.50;;;524.53;;
39314;SDS011;28703;44.412;11.918;2023-08-06T07:57:05;683.92;;;631.30;;
39314;SDS011;28703;44.412;11.918;2023-08-06T07:59:31;579.83;;;533.38;;
39314;SDS011;28703;44.412;11.918;2023-08-06T08:01:57;534.78;;;490.98;;
39314;SDS011;28703;44.412;11.918;2023-08-06T08:04:24;542.25;;;498.13;;
39314;SDS011;28703;44.412;11.918;2023-08-06T08:06:50;526.50;;;483.63;;
39314;SDS011;28703;44.412;11.918;2023-08-06T08:09:16;543.25;;;498.98;;
39314;SDS011;28703;44.412;11.918;2023-08-06T08:11:42;555.15;;;510.45;;
39314;SDS011;28703;44.412;11.918;2023-08-06T08:14:08;548.65;;;504.75;;
39314;SDS011;28703;44.412;11.918;2023-08-06T08:16:34;542.33;;;499.25;;
39314;SDS011;28703;44.412;11.918;2023-08-06T08:19:00;571.78;;;526.58;;
39314;SDS011;28703;44.412;11.918;2023-08-06T08:21:26;552.10;;;508.38;;
39314;SDS011;28703;44.412;11.918;2023-08-06T08:23:51;557.53;;;513.70;;
39314;SDS011;28703;44.412;11.918;2023-08-06T08:26:18;563.50;;;519.60;;
39314;SDS011;28703;44.412;11.918;2023-08-06T08:28:44;503.90;;;466.13;;
39314;SDS011;28703;44.412;11.918;2023-08-06T08:31:10;478.23;;;443.27;;
39314;SDS011;28703;44.412;11.918;2023-08-06T08:33:37;509.08;;;472.27;;
39314;SDS011;28703;44.412;11.918;2023-08-06T08:36:03;520.58;;;482.88;;
39314;SDS011;28703;44.412;11.918;2023-08-06T08:38:29;481.67;;;446.50;;
39314;SDS011;28703;44.412;11.918;2023-08-06T08:40:55;455.95;;;423.15;;
39314;SDS011;28703;44.412;11.918;2023-08-06T08:43:22;347.58;;;324.65;;
39314;SDS011;28703;44.412;11.918;2023-08-06T08:45:52;351.30;;;328.20;;
39314;SDS011;28703;44.412;11.918;2023-08-06T08:48:21;353.05;;;329.75;;
39314;SDS011;28703;44.412;11.918;2023-08-06T08:50:48;367.45;;;343.42;;
39314;SDS011;28703;44.412;11.918;2023-08-06T08:53:16;411.88;;;384.35;;
39314;SDS011;28703;44.412;11.918;2023-08-06T08:55:47;419.27;;;391.25;;
39314;SDS011;28703;44.412;11.918;2023-08-06T08:58:14;444.02;;;413.65;;
39314;SDS011;28703;44.412;11.918;2023-08-06T09:00:45;452.35;;;421.58;;
39314;SDS011;28703;44.412;11.918;2023-08-06T09:03:13;439.10;;;409.40;;
39314;SDS011;28703;44.412;11.918;2023-08-06T09:05:42;448.25;;;417.38;;
39314;SDS011;28703;44.412;11.918;2023-08-06T09:08:11;461.80;;;430.40;;
39314;SDS011;28703;44.412;11.918;2023-08-06T09:10:39;487.08;;;452.52;;
39314;SDS011;28703;44.412;11.918;2023-08-06T09:13:06;504.52;;;468.60;;
39314;SDS011;28703;44.412;11.918;2023-08-06T09:15:34;505.08;;;469.92;;
39314;SDS011;28703;44.412;11.918;2023-08-06T09:18:00;656.10;;;605.75;;
39314;SDS011;28703;44.412;11.918;2023-08-06T09:20:34;594.67;;;551.47;;
39314;SDS011;28703;44.412;11.918;2023-08-06T09:23:06;560.95;;;520.70;;
39314;SDS011;28703;44.412;11.918;2023-08-06T09:25:37;569.60;;;528.75;;
39314;SDS011;28703;44.412;11.918;2023-08-06T09:28:06;611.60;;;566.95;;
39314;SDS011;28703;44.412;11.918;2023-08-06T09:30:34;507.45;;;472.17;;
39314;SDS011;28703;44.412;11.918;2023-08-06T09:33:01;516.33;;;480.00;;
39314;SDS011;28703;44.412;11.918;2023-08-06T09:35:30;519.72;;;483.15;;
39314;SDS011;28703;44.412;11.918;2023-08-06T09:38:09;490.23;;;455.88;;
39314;SDS011;28703;44.412;11.918;2023-08-06T09:40:36;457.58;;;426.77;;
39314;SDS011;28703;44.412;11.918;2023-08-06T09:43:02;445.80;;;415.95;;
39314;SDS011;28703;44.412;11.918;2023-08-06T09:45:37;499.40;;;464.88;;
39314;SDS011;28703;44.412;11.918;2023-08-06T09:48:07;458.27;;;427.30;;
39314;SDS011;28703;44.412;11.918;2023-08-06T09:50:35;438.73;;;409.88;;
39314;SDS011;28703;44.412;11.918;2023-08-06T09:53:02;433.23;;;404.25;;
39314;SDS011;28703;44.412;11.918;2023-08-06T09:55:29;431.33;;;402.88;;
39314;SDS011;28703;44.412;11.918;2023-08-06T09:57:55;465.38;;;433.60;;
39314;SDS011;28703;44.412;11.918;2023-08-06T10:00:23;448.15;;;417.70;;
39314;SDS011;28703;44.412;11.918;2023-08-06T10:02:49;484.58;;;450.95;;
39314;SDS011;28703;44.412;11.918;2023-08-06T10:05:20;450.00;;;419.95;;
39314;SDS011;28703;44.412;11.918;2023-08-06T10:07:50;493.33;;;459.05;;
39314;SDS011;28703;44.412;11.918;2023-08-06T10:10:16;499.75;;;464.95;;
39314;SDS011;28703;44.412;11.918;2023-08-06T10:12:51;460.13;;;429.02;;
39314;SDS011;28703;44.412;11.918;2023-08-06T10:15:23;467.13;;;435.42;;
39314;SDS011;28703;44.412;11.918;2023-08-06T10:17:51;474.92;;;442.67;;
39314;SDS011;28703;44.412;11.918;2023-08-06T10:20:21;485.00;;;451.33;;
39314;SDS011;28703;44.412;11.918;2023-08-06T10:23:03;476.30;;;443.55;;
39314;SDS011;28703;44.412;11.918;2023-08-06T10:25:31;483.20;;;450.05;;
39314;SDS011;28703;44.412;11.918;2023-08-06T10:28:08;482.98;;;449.33;;
39314;SDS011;28703;44.412;11.918;2023-08-06T10:30:41;574.33;;;533.43;;
39314;SDS011;28703;44.412;11.918;2023-08-06T10:33:08;569.63;;;528.67;;
39314;SDS011;28703;44.412;11.918;2023-08-06T10:38:10;586.75;;;544.13;;
39314;SDS011;28703;44.412;11.918;2023-08-06T10:40:42;529.70;;;491.70;;
39314;SDS011;28703;44.412;11.918;2023-08-06T10:46:00;580.22;;;538.83;;
39314;SDS011;28703;44.412;11.918;2023-08-06T10:48:31;583.63;;;540.78;;
39314;SDS011;28703;44.412;11.918;2023-08-06T10:51:06;600.03;;;556.03;;
39314;SDS011;28703;44.412;11.918;2023-08-06T10:53:33;639.45;;;592.28;;
39314;SDS011;28703;44.412;11.918;2023-08-06T10:56:00;616.00;;;570.55;;
39314;SDS011;28703;44.412;11.918;2023-08-06T10:58:30;619.90;;;574.33;;
39314;SDS011;28703;44.412;11.918;2023-08-06T11:00:57;616.55;;;571.13;;
39314;SDS011;28703;44.412;11.918;2023-08-06T11:03:24;613.88;;;569.00;;
39314;SDS011;28703;44.412;11.918;2023-08-06T11:05:52;612.22;;;567.08;;
39314;SDS011;28703;44.412;11.918;2023-08-06T11:08:28;593.75;;;550.50;;
39314;SDS011;28703;44.412;11.918;2023-08-06T11:10:55;603.05;;;559.25;;
39314;SDS011;28703;44.412;11.918;2023-08-06T11:13:32;621.22;;;575.58;;
39314;SDS011;28703;44.412;11.918;2023-08-06T11:15:58;617.80;;;571.80;;
39314;SDS011;28703;44.412;11.918;2023-08-06T11:18:24;634.60;;;588.50;;
39314;SDS011;28703;44.412;11.918;2023-08-06T11:20:50;637.65;;;591.05;;
39314;SDS011;28703;44.412;11.918;2023-08-06T11:23:16;650.53;;;602.22;;
39314;SDS011;28703;44.412;11.918;2023-08-06T11:25:45;674.75;;;625.00;;
39314;SDS011;28703;44.412;11.918;2023-08-06T11:28:12;623.15;;;577.08;;
39314;SDS011;28703;44.412;11.918;2023-08-06T11:30:38;668.33;;;619.20;;
39314;SDS011;28703;44.412;11.918;2023-08-06T11:33:06;645.13;;;597.30;;
39314;SDS011;28703;44.412;11.918;2023-08-06T11:35:35;653.57;;;605.93;;
39314;SDS011;28703;44.412;11.918;2023-08-06T11:38:01;674.20;;;624.40;;
39314;SDS011;28703;44.412;11.918;2023-08-06T11:40:27;685.00;;;634.67;;
39314;SDS011;28703;44.412;11.918;2023-08-06T11:42:53;680.25;;;629.88;;
39314;SDS011;28703;44.412;11.918;2023-08-06T11:45:22;662.15;;;612.90;;
39314;SDS011;28703;44.412;11.918;2023-08-06T11:47:52;678.25;;;627.88;;
39314;SDS011;28703;44.412;11.918;2023-08-06T11:50:25;671.58;;;622.15;;
39314;SDS011;28703;44.412;11.918;2023-08-06T11:52:56;658.00;;;609.92;;
39314;SDS011;28703;44.412;11.918;2023-08-06T11:55:24;683.33;;;632.88;;
39314;SDS011;28703;44.412;11.918;2023-08-06T11:57:51;686.35;;;635.67;;
39314;SDS011;28703;44.412;11.918;2023-08-06T12:00:17;692.25;;;640.97;;
39314;SDS011;28703;44.412;11.918;2023-08-06T12:02:45;717.33;;;664.05;;
39314;SDS011;28703;44.412;11.918;2023-08-06T12:05:13;702.83;;;650.97;;
39314;SDS011;28703;44.412;11.918;2023-08-06T12:07:40;713.75;;;660.88;;
39314;SDS011;28703;44.412;11.918;2023-08-06T12:10:07;702.17;;;649.97;;
39314;SDS011;28703;44.412;11.918;2023-08-06T12:12:34;687.17;;;636.35;;
39314;SDS011;28703;44.412;11.918;2023-08-06T12:15:00;616.15;;;571.47;;
39314;SDS011;28703;44.412;11.918;2023-08-06T12:17:27;595.83;;;552.33;;
39314;SDS011;28703;44.412;11.918;2023-08-06T12:19:53;577.63;;;535.78;;
39314;SDS011;28703;44.412;11.918;2023-08-06T12:22:19;586.00;;;543.25;;
39314;SDS011;28703;44.412;11.918;2023-08-06T12:24:45;599.22;;;555.65;;
39314;SDS011;28703;44.412;11.918;2023-08-06T12:27:12;580.75;;;538.00;;
39314;SDS011;28703;44.412;11.918;2023-08-06T12:29:43;586.65;;;544.47;;
39314;SDS011;28703;44.412;11.918;2023-08-06T12:32:10;543.20;;;504.73;;
39314;SDS011;28703;44.412;11.918;2023-08-06T12:34:40;498.17;;;463.27;;
39314;SDS011;28703;44.412;11.918;2023-08-06T12:37:07;476.45;;;443.52;;
39314;SDS011;28703;44.412;11.918;2023-08-06T12:39:34;506.98;;;471.35;;
39314;SDS011;28703;44.412;11.918;2023-08-06T12:42:01;548.28;;;508.95;;
39314;SDS011;28703;44.412;11.918;2023-08-06T12:44:27;558.10;;;517.63;;
39314;SDS011;28703;44.412;11.918;2023-08-06T12:46:54;544.85;;;505.83;;
39314;SDS011;28703;44.412;11.918;2023-08-06T12:49:20;588.95;;;546.03;;
39314;SDS011;28703;44.412;11.918;2023-08-06T12:51:49;586.47;;;543.20;;
39314;SDS011;28703;44.412;11.918;2023-08-06T12:54:19;598.15;;;554.63;;
39314;SDS011;28703;44.412;11.918;2023-08-06T12:56:45;588.67;;;546.03;;
39314;SDS011;28703;44.412;11.918;2023-08-06T12:59:13;592.05;;;548.70;;
39314;SDS011;28703;44.412;11.918;2023-08-06T13:01:40;559.20;;;518.33;;
39314;SDS011;28703;44.412;11.918;2023-08-06T13:04:07;406.80;;;379.33;;
39314;SDS011;28703;44.412;11.918;2023-08-06T13:06:33;320.98;;;299.85;;
39314;SDS011;28703;44.412;11.918;2023-08-06T13:09:05;308.42;;;288.55;;
39314;SDS011;28703;44.412;11.918;2023-08-06T13:11:33;279.35;;;261.67;;
39314;SDS011;28703;44.412;11.918;2023-08-06T13:14:07;278.55;;;261.02;;
39314;SDS011;28703;44.412;11.918;2023-08-06T13:16:35;274.33;;;256.73;;
39314;SDS011;28703;44.412;11.918;2023-08-06T13:19:02;277.40;;;259.55;;
39314;SDS011;28703;44.412;11.918;2023-08-06T13:21:33;249.07;;;233.27;;
39314;SDS011;28703;44.412;11.918;2023-08-06T13:24:03;266.40;;;249.48;;
39314;SDS011;28703;44.412;11.918;2023-08-06T13:26:29;250.77;;;234.75;;
39314;SDS011;28703;44.412;11.918;2023-08-06T13:28:58;273.75;;;256.27;;
39314;SDS011;28703;44.412;11.918;2023-08-06T13:31:25;249.23;;;233.40;;
39314;SDS011;28703;44.412;11.918;2023-08-06T13:33:52;247.90;;;232.05;;
39314;SDS011;28703;44.412;11.918;2023-08-06T13:36:20;239.35;;;224.25;;
39314;SDS011;28703;44.412;11.918;2023-08-06T13:38:47;212.35;;;198.73;;
39314;SDS011;28703;44.412;11.918;2023-08-06T13:41:13;197.40;;;184.80;;
39314;SDS011;28703;44.412;11.918;2023-08-06T13:43:39;170.95;;;160.10;;
39314;SDS011;28703;44.412;11.918;2023-08-06T13:46:05;155.15;;;145.25;;
39314;SDS011;28703;44.412;11.918;2023-08-06T13:48:31;153.93;;;143.85;;
39314;SDS011;28703;44.412;11.918;2023-08-06T13:50:57;162.48;;;152.30;;
39314;SDS011;28703;44.412;11.918;2023-08-06T13:53:23;157.50;;;147.68;;
39314;SDS011;28703;44.412;11.918;2023-08-06T13:55:55;145.35;;;136.45;;